Time;durP1;ratioP1;P1;durP2;ratioP2;P2;SDS_P1;SDS_P2;PMS_P1;PMS_P2;Temp;Humidity;BMP_temperature;BMP_pressure;BME280_temperature;BME280_humidity;BME280_pressure;Samples;Min_cycle;Max_cycle;Signal;HPM_P1;HPM_P2
2023/10/26 00:01:12;;;;;;;36.43;24.20;;;;;;;;;;5029683;28;20065;-59
2023/10/26 00:03:37;;;;;;;35.83;24.88;;;;;;;;;;5030925;28;20024;-58
2023/10/26 00:06:02;;;;;;;41.58;25.90;;;;;;;;;;5029933;28;20045;-58
2023/10/26 00:08:27;;;;;;;34.65;25.60;;;;;;;;;;5031476;28;20457;-58
2023/10/26 00:10:53;;;;;;;34.40;27.42;;;;;;;;;;5029353;28;20033;-58
2023/10/26 00:13:18;;;;;;;36.33;28.92;;;;;;;;;;5031457;28;20384;-58
2023/10/26 00:15:43;;;;;;;41.65;28.25;;;;;;;;;;5029570;28;20087;-58
2023/10/26 00:18:09;;;;;;;49.83;29.65;;;;;;;;;;5031218;28;20071;-58
2023/10/26 00:20:34;;;;;;;40.28;30.23;;;;;;;;;;5029447;28;20030;-59
2023/10/26 00:22:59;;;;;;;51.90;30.00;;;;;;;;;;5030814;28;20372;-59
2023/10/26 00:25:24;;;;;;;47.73;29.40;;;;;;;;;;5028943;28;20979;-58
2023/10/26 00:27:51;;;;;;;43.00;29.60;;;;;;;;;;5030599;28;20458;-59
2023/10/26 00:30:16;;;;;;;52.38;33.38;;;;;;;;;;5029309;28;20116;-59
2023/10/26 00:32:41;;;;;;;36.10;26.80;;;;;;;;;;5030951;28;20096;-58
2023/10/26 00:35:06;;;;;;;41.83;29.67;;;;;;;;;;5029007;28;21025;-59
2023/10/26 00:37:32;;;;;;;35.70;28.05;;;;;;;;;;5031084;28;20013;-59
2023/10/26 00:39:57;;;;;;;39.80;28.30;;;;;;;;;;5029181;28;20499;-60
2023/10/26 00:42:22;;;;;;;44.27;29.20;;;;;;;;;;5030592;28;20032;-60
2023/10/26 00:44:49;;;;;;;38.57;32.10;;;;;;;;;;5029388;28;20962;-59
2023/10/26 00:47:14;;;;;;;43.08;29.80;;;;;;;;;;5030378;28;20977;-60
2023/10/26 00:49:42;;;;;;;48.23;30.73;;;;;;;;;;5028976;28;20022;-60
2023/10/26 00:52:08;;;;;;;45.45;33.10;;;;;;;;;;5030304;28;21115;-60
2023/10/26 00:54:34;;;;;;;44.08;31.58;;;;;;;;;;5029546;28;20030;-59
2023/10/26 00:57:01;;;;;;;41.85;32.03;;;;;;;;;;5030257;28;20018;-60
2023/10/26 00:59:27;;;;;;;42.10;30.77;;;;;;;;;;5030450;28;20081;-60
2023/10/26 01:01:53;;;;;;;46.22;29.20;;;;;;;;;;5028588;28;20084;-60
2023/10/26 01:04:19;;;;;;;46.97;31.10;;;;;;;;;;5030328;28;20017;-60
2023/10/26 01:06:44;;;;;;;47.93;32.83;;;;;;;;;;5029353;28;20124;-60
2023/10/26 01:09:09;;;;;;;50.17;34.67;;;;;;;;;;5030480;28;20821;-72
2023/10/26 01:11:35;;;;;;;48.45;31.02;;;;;;;;;;5028800;28;21072;-59
2023/10/26 01:14:00;;;;;;;57.50;32.65;;;;;;;;;;5030340;28;20499;-59
2023/10/26 01:16:25;;;;;;;50.53;35.22;;;;;;;;;;5029218;28;20235;-58
2023/10/26 01:18:51;;;;;;;48.45;33.20;;;;;;;;;;5030037;28;20021;-58
2023/10/26 01:21:16;;;;;;;43.17;29.30;;;;;;;;;;5028264;28;20095;-58
2023/10/26 01:23:41;;;;;;;45.93;31.60;;;;;;;;;;5030623;28;20392;-58
2023/10/26 01:26:06;;;;;;;52.88;35.13;;;;;;;;;;5028088;28;20050;-58
2023/10/26 01:28:31;;;;;;;48.55;33.72;;;;;;;;;;5030221;28;20014;-58
2023/10/26 01:30:58;;;;;;;50.50;32.63;;;;;;;;;;5028761;28;20030;-58
2023/10/26 01:33:23;;;;;;;47.97;33.13;;;;;;;;;;5030226;28;20029;-58
2023/10/26 01:35:48;;;;;;;50.30;34.17;;;;;;;;;;5028840;28;20033;-58
2023/10/26 01:38:13;;;;;;;49.10;35.47;;;;;;;;;;5032984;28;20029;-58
2023/10/26 01:40:39;;;;;;;55.35;35.10;;;;;;;;;;5032365;28;20456;-58
2023/10/26 01:43:04;;;;;;;53.97;33.00;;;;;;;;;;5033853;28;20422;-58
2023/10/26 01:45:29;;;;;;;54.95;33.60;;;;;;;;;;5032825;28;20026;-59
2023/10/26 01:47:55;;;;;;;53.88;34.65;;;;;;;;;;5033098;28;20026;-58
2023/10/26 01:50:20;;;;;;;49.57;35.53;;;;;;;;;;5032547;28;20025;-58
2023/10/26 01:52:45;;;;;;;55.45;33.78;;;;;;;;;;5034179;28;20432;-58
2023/10/26 01:55:10;;;;;;;53.45;32.53;;;;;;;;;;5031986;28;20056;-59
2023/10/26 01:57:35;;;;;;;49.33;32.13;;;;;;;;;;5033616;28;20033;-58
2023/10/26 02:00:01;;;;;;;59.73;36.60;;;;;;;;;;5031869;28;20073;-58
2023/10/26 02:02:26;;;;;;;56.00;33.80;;;;;;;;;;5033645;28;20514;-58
2023/10/26 02:04:51;;;;;;;56.15;36.20;;;;;;;;;;5032030;28;20014;-58
2023/10/26 02:07:16;;;;;;;45.85;30.80;;;;;;;;;;5033328;28;20057;-58
2023/10/26 02:09:41;;;;;;;51.33;31.57;;;;;;;;;;5032039;28;20032;-59
2023/10/26 02:12:07;;;;;;;52.77;32.07;;;;;;;;;;5033365;28;20495;-58
2023/10/26 02:14:32;;;;;;;49.13;30.67;;;;;;;;;;5033737;28;20021;-67
2023/10/26 02:16:57;;;;;;;49.35;32.55;;;;;;;;;;5030990;28;20048;-58
2023/10/26 02:19:22;;;;;;;44.92;31.00;;;;;;;;;;5033821;28;20484;-58
2023/10/26 02:21:47;;;;;;;47.72;33.83;;;;;;;;;;5032009;28;20033;-58
2023/10/26 02:24:13;;;;;;;47.83;30.98;;;;;;;;;;5032925;28;20018;-58
2023/10/26 02:26:38;;;;;;;56.40;33.93;;;;;;;;;;5031827;28;20424;-58
2023/10/26 02:29:03;;;;;;;54.03;32.10;;;;;;;;;;5033019;28;21031;-59
2023/10/26 02:31:28;;;;;;;52.53;31.80;;;;;;;;;;5031662;28;20400;-59
2023/10/26 02:33:53;;;;;;;47.37;33.17;;;;;;;;;;5032750;28;20456;-58
2023/10/26 02:36:18;;;;;;;55.23;33.10;;;;;;;;;;5031465;28;20449;-58
2023/10/26 02:38:44;;;;;;;50.92;33.53;;;;;;;;;;5033202;28;20387;-58
2023/10/26 02:41:09;;;;;;;48.13;31.53;;;;;;;;;;5030854;28;20057;-58
2023/10/26 02:43:34;;;;;;;52.03;33.07;;;;;;;;;;5032647;28;20017;-58
2023/10/26 02:46:04;;;;;;;49.97;31.33;;;;;;;;;;5031150;28;20033;-58
2023/10/26 02:48:30;;;;;;;50.65;31.80;;;;;;;;;;5030386;28;20495;-68
2023/10/26 02:50:55;;;;;;;51.60;31.73;;;;;;;;;;5031274;28;20053;-58
2023/10/26 02:53:20;;;;;;;57.75;33.65;;;;;;;;;;5032750;28;20083;-58
2023/10/26 02:55:45;;;;;;;50.22;29.95;;;;;;;;;;5030898;28;20042;-58
2023/10/26 02:58:10;;;;;;;50.30;30.73;;;;;;;;;;5032424;28;20527;-58
2023/10/26 03:00:36;;;;;;;45.23;29.03;;;;;;;;;;5031152;28;20111;-58
2023/10/26 03:03:01;;;;;;;48.25;31.45;;;;;;;;;;5032061;28;20025;-58
2023/10/26 03:05:26;;;;;;;45.43;31.97;;;;;;;;;;5030858;28;20490;-58
2023/10/26 03:07:52;;;;;;;49.33;31.90;;;;;;;;;;5031017;28;20028;-58
2023/10/26 03:10:17;;;;;;;50.20;30.58;;;;;;;;;;5030856;28;20456;-58
2023/10/26 03:12:45;;;;;;;42.35;28.98;;;;;;;;;;5032629;28;20026;-58
2023/10/26 03:15:10;;;;;;;56.75;30.77;;;;;;;;;;5030767;28;20358;-58
2023/10/26 03:17:35;;;;;;;48.90;29.27;;;;;;;;;;5032362;28;20424;-58
2023/10/26 03:20:01;;;;;;;46.38;28.48;;;;;;;;;;5030623;28;20797;-58
2023/10/26 03:22:26;;;;;;;48.00;28.00;;;;;;;;;;5032132;28;20032;-58
2023/10/26 03:24:51;;;;;;;52.40;30.70;;;;;;;;;;5030251;28;20691;-58
2023/10/26 03:27:16;;;;;;;50.97;33.57;;;;;;;;;;5032395;28;20029;-58
2023/10/26 03:29:41;;;;;;;46.83;29.33;;;;;;;;;;5030282;28;20522;-58
2023/10/26 03:32:06;;;;;;;52.15;31.60;;;;;;;;;;5031767;28;20979;-59
2023/10/26 03:34:33;;;;;;;41.77;27.90;;;;;;;;;;5030552;28;20045;-58
2023/10/26 03:36:58;;;;;;;47.00;30.75;;;;;;;;;;5031768;28;20025;-59
2023/10/26 03:39:23;;;;;;;51.15;31.33;;;;;;;;;;5031755;28;20018;-57
2023/10/26 03:41:48;;;;;;;52.40;29.27;;;;;;;;;;5030138;28;20033;-57
2023/10/26 03:44:14;;;;;;;49.15;30.08;;;;;;;;;;5031414;28;20060;-57
2023/10/26 03:46:39;;;;;;;53.13;31.57;;;;;;;;;;5030144;28;20507;-57
2023/10/26 03:49:04;;;;;;;54.53;32.23;;;;;;;;;;5031647;28;20041;-57
2023/10/26 03:51:29;;;;;;;52.10;32.97;;;;;;;;;;5030114;28;20477;-57
2023/10/26 03:53:54;;;;;;;60.40;33.30;;;;;;;;;;5030551;28;20017;-65
2023/10/26 03:56:19;;;;;;;52.13;32.70;;;;;;;;;;5030008;28;20042;-57
2023/10/26 03:58:45;;;;;;;59.30;32.90;;;;;;;;;;5031906;28;20477;-57
2023/10/26 04:01:10;;;;;;;51.53;32.30;;;;;;;;;;5029424;28;20078;-57
2023/10/26 04:03:35;;;;;;;57.53;33.67;;;;;;;;;;5031374;28;20033;-57
2023/10/26 04:06:00;;;;;;;51.25;32.58;;;;;;;;;;5029887;28;20459;-58
2023/10/26 04:08:25;;;;;;;53.05;34.42;;;;;;;;;;5030932;28;20073;-59
2023/10/26 04:10:50;;;;;;;57.70;34.20;;;;;;;;;;5028818;28;20034;-58
2023/10/26 04:13:15;;;;;;;59.27;34.03;;;;;;;;;;5030626;28;20235;-57
2023/10/26 04:15:41;;;;;;;57.37;35.67;;;;;;;;;;5028900;28;20518;-57
2023/10/26 04:18:06;;;;;;;53.43;33.43;;;;;;;;;;5030324;28;20036;-58
2023/10/26 04:20:31;;;;;;;54.40;33.58;;;;;;;;;;5029156;28;20045;-56
2023/10/26 04:22:56;;;;;;;56.80;32.37;;;;;;;;;;5030245;28;20388;-56
2023/10/26 04:25:21;;;;;;;56.97;32.93;;;;;;;;;;5029619;28;20509;-57
2023/10/26 04:27:47;;;;;;;56.85;33.28;;;;;;;;;;5030541;28;20028;-56
2023/10/26 04:30:12;;;;;;;51.28;32.65;;;;;;;;;;5028446;28;20116;-57
2023/10/26 04:32:37;;;;;;;66.00;34.00;;;;;;;;;;5031052;28;20029;-56
2023/10/26 04:35:03;;;;;;;55.50;31.13;;;;;;;;;;5029246;28;20408;-56
2023/10/26 04:37:28;;;;;;;66.93;37.45;;;;;;;;;;5029771;28;20998;-56
2023/10/26 04:39:53;;;;;;;50.53;32.33;;;;;;;;;;5028138;28;20041;-56
2023/10/26 04:42:19;;;;;;;50.83;33.93;;;;;;;;;;5029857;28;20025;-56
2023/10/26 04:44:45;;;;;;;57.63;34.95;;;;;;;;;;5028639;28;20079;-56
2023/10/26 04:47:10;;;;;;;59.95;36.70;;;;;;;;;;5030255;28;20026;-56
2023/10/26 04:49:36;;;;;;;57.80;34.47;;;;;;;;;;5029546;28;20148;-56
2023/10/26 04:52:01;;;;;;;59.40;36.95;;;;;;;;;;5030387;28;20435;-56
2023/10/26 04:54:27;;;;;;;61.42;35.88;;;;;;;;;;5030391;28;20021;-56
2023/10/26 04:56:52;;;;;;;58.28;39.05;;;;;;;;;;5028910;28;20037;-56
2023/10/26 04:59:18;;;;;;;63.70;36.95;;;;;;;;;;5031025;28;20048;-65
2023/10/26 05:01:43;;;;;;;64.03;38.27;;;;;;;;;;5026343;28;20091;-56
2023/10/26 05:04:10;;;;;;;63.95;34.75;;;;;;;;;;5020417;28;20117;-56
2023/10/26 05:06:35;;;;;;;60.42;36.28;;;;;;;;;;5016988;28;20033;-56
2023/10/26 05:09:00;;;;;;;69.37;39.57;;;;;;;;;;5017695;28;20044;-56
2023/10/26 05:11:25;;;;;;;59.92;35.60;;;;;;;;;;5016400;28;20078;-57
2023/10/26 05:13:53;;;;;;;70.10;43.17;;;;;;;;;;5022137;28;20487;-57
2023/10/26 05:16:18;;;;;;;65.20;38.95;;;;;;;;;;5022320;28;20091;-58
2023/10/26 05:18:43;;;;;;;72.73;37.30;;;;;;;;;;5022618;28;20018;-57
2023/10/26 05:21:08;;;;;;;76.33;38.23;;;;;;;;;;5022339;28;20034;-57
2023/10/26 05:23:33;;;;;;;73.50;40.43;;;;;;;;;;5021836;28;20467;-57
2023/10/26 05:25:59;;;;;;;71.90;39.10;;;;;;;;;;5019851;28;20443;-57
2023/10/26 05:28:24;;;;;;;69.38;40.25;;;;;;;;;;5023877;28;20424;-56
2023/10/26 05:30:49;;;;;;;64.63;39.60;;;;;;;;;;5031817;28;20088;-56
2023/10/26 05:33:15;;;;;;;67.93;41.20;;;;;;;;;;5034146;28;20087;-57
2023/10/26 05:35:40;;;;;;;71.75;39.30;;;;;;;;;;5032896;28;20068;-57
2023/10/26 05:38:06;;;;;;;75.93;39.27;;;;;;;;;;5032943;28;20472;-56
2023/10/26 05:40:31;;;;;;;70.05;38.55;;;;;;;;;;5028646;28;20468;-57
2023/10/26 05:42:56;;;;;;;79.78;41.53;;;;;;;;;;5033660;28;20303;-56
2023/10/26 05:45:22;;;;;;;65.77;40.43;;;;;;;;;;5030938;28;20033;-56
2023/10/26 05:47:50;;;;;;;82.13;41.80;;;;;;;;;;5033919;28;20531;-57
2023/10/26 05:50:15;;;;;;;83.60;42.45;;;;;;;;;;5032530;28;20029;-57
2023/10/26 05:52:40;;;;;;;82.23;42.60;;;;;;;;;;5032997;28;20365;-66
2023/10/26 05:55:06;;;;;;;78.10;43.70;;;;;;;;;;5032645;28;20037;-57
2023/10/26 05:57:31;;;;;;;80.10;40.53;;;;;;;;;;5033895;28;20052;-57
2023/10/26 05:59:56;;;;;;;77.85;41.97;;;;;;;;;;5030629;28;20112;-57
2023/10/26 06:02:21;;;;;;;70.72;42.78;;;;;;;;;;5030780;28;20029;-57
2023/10/26 06:04:46;;;;;;;72.28;39.85;;;;;;;;;;5031371;28;20039;-57
2023/10/26 06:07:11;;;;;;;89.43;44.80;;;;;;;;;;5032428;28;20020;-57
2023/10/26 06:09:37;;;;;;;76.47;42.33;;;;;;;;;;5032169;28;20028;-57
2023/10/26 06:12:02;;;;;;;80.77;46.17;;;;;;;;;;5033422;28;20013;-57
2023/10/26 06:14:27;;;;;;;70.53;40.40;;;;;;;;;;5032900;28;20108;-57
2023/10/26 06:16:52;;;;;;;81.00;43.57;;;;;;;;;;5031781;28;20033;-57
2023/10/26 06:19:17;;;;;;;78.75;40.95;;;;;;;;;;5032568;28;20440;-57
2023/10/26 06:21:43;;;;;;;76.68;41.95;;;;;;;;;;5031239;28;20041;-57
2023/10/26 06:24:08;;;;;;;72.40;39.58;;;;;;;;;;5031939;28;20465;-57
2023/10/26 06:26:33;;;;;;;67.28;40.88;;;;;;;;;;5030464;28;20044;-57
2023/10/26 06:28:59;;;;;;;78.60;40.40;;;;;;;;;;5032584;28;20021;-57
2023/10/26 06:31:24;;;;;;;81.30;45.45;;;;;;;;;;5031917;28;20811;-57
2023/10/26 06:33:49;;;;;;;72.03;41.40;;;;;;;;;;5033305;28;20069;-57
2023/10/26 06:36:14;;;;;;;72.97;43.17;;;;;;;;;;5031251;28;20400;-57
2023/10/26 06:38:40;;;;;;;77.90;44.23;;;;;;;;;;5032979;28;20026;-60
2023/10/26 06:41:06;;;;;;;81.13;45.90;;;;;;;;;;5031273;28;20444;-57
2023/10/26 06:43:31;;;;;;;78.70;43.38;;;;;;;;;;5032732;28;20025;-57
2023/10/26 06:45:56;;;;;;;95.22;43.00;;;;;;;;;;5031547;28;20451;-57
2023/10/26 06:48:21;;;;;;;95.07;43.05;;;;;;;;;;5033055;28;20084;-57
2023/10/26 06:50:47;;;;;;;85.77;44.97;;;;;;;;;;5031100;28;20042;-57
2023/10/26 06:53:12;;;;;;;91.25;44.30;;;;;;;;;;5032480;28;20448;-57
2023/10/26 06:55:38;;;;;;;90.40;45.55;;;;;;;;;;5031547;28;20038;-57
2023/10/26 06:58:04;;;;;;;85.72;48.25;;;;;;;;;;5032438;28;20419;-57
2023/10/26 07:00:29;;;;;;;79.15;46.50;;;;;;;;;;5031353;28;20083;-57
2023/10/26 07:02:54;;;;;;;78.73;46.17;;;;;;;;;;5032286;28;20021;-57
2023/10/26 07:05:19;;;;;;;87.28;48.40;;;;;;;;;;5030926;28;20444;-57
2023/10/26 07:07:45;;;;;;;91.00;45.57;;;;;;;;;;5032756;28;20017;-57
2023/10/26 07:10:15;;;;;;;79.95;46.22;;;;;;;;;;5031067;28;20033;-57
2023/10/26 07:12:40;;;;;;;83.57;46.17;;;;;;;;;;5032308;28;20018;-57
2023/10/26 07:15:05;;;;;;;93.28;46.35;;;;;;;;;;5030852;28;20037;-57
2023/10/26 07:17:30;;;;;;;87.35;44.88;;;;;;;;;;5032606;28;20029;-57
2023/10/26 07:19:55;;;;;;;97.73;47.77;;;;;;;;;;5030529;28;20036;-57
2023/10/26 07:22:21;;;;;;;87.53;48.57;;;;;;;;;;5031882;28;20538;-57
2023/10/26 07:24:46;;;;;;;82.45;47.72;;;;;;;;;;5029476;28;20132;-57
2023/10/26 07:27:12;;;;;;;86.40;48.60;;;;;;;;;;5032235;28;20100;-57
2023/10/26 07:29:37;;;;;;;84.83;46.97;;;;;;;;;;5030461;28;20044;-57
2023/10/26 07:32:02;;;;;;;77.23;48.00;;;;;;;;;;5031866;28;20428;-57
2023/10/26 07:34:27;;;;;;;83.32;47.42;;;;;;;;;;5031651;28;20467;-57
2023/10/26 07:36:52;;;;;;;80.57;48.28;;;;;;;;;;5030176;28;20033;-58
2023/10/26 07:39:17;;;;;;;78.53;48.67;;;;;;;;;;5032342;28;20021;-57
2023/10/26 07:41:43;;;;;;;79.40;47.93;;;;;;;;;;5030445;28;20041;-57
2023/10/26 07:44:08;;;;;;;69.75;46.20;;;;;;;;;;5031529;28;20037;-58
2023/10/26 07:46:33;;;;;;;74.30;46.67;;;;;;;;;;5030041;28;20115;-57
2023/10/26 07:48:59;;;;;;;75.07;47.03;;;;;;;;;;5031605;28;20450;-57
2023/10/26 07:51:24;;;;;;;82.57;47.13;;;;;;;;;;5030085;28;20068;-57
2023/10/26 07:53:49;;;;;;;72.87;47.17;;;;;;;;;;5031261;28;20024;-57
2023/10/26 07:56:15;;;;;;;82.03;45.43;;;;;;;;;;5030206;28;20082;-57
2023/10/26 07:58:40;;;;;;;73.35;46.20;;;;;;;;;;5031452;28;20018;-57
2023/10/26 08:01:09;;;;;;;87.93;49.07;;;;;;;;;;5029694;28;20637;-57
2023/10/26 08:03:34;;;;;;;73.82;47.13;;;;;;;;;;5031512;28;20017;-57
2023/10/26 08:06:02;;;;;;;71.53;48.93;;;;;;;;;;5029589;28;20029;-57
2023/10/26 08:08:27;;;;;;;;;;;;;;;;;;5032412;28;20083;-57
2023/10/26 08:10:53;;;;;;;93.35;47.75;;;;;;;;;;5029774;28;19913;-57
2023/10/26 08:13:18;;;;;;;93.05;51.67;;;;;;;;;;5031344;28;20492;-56
2023/10/26 08:15:43;;;;;;;74.07;48.85;;;;;;;;;;5029690;28;20060;-57
2023/10/26 08:18:08;;;;;;;78.73;49.13;;;;;;;;;;5031222;28;20021;-57
2023/10/26 08:20:34;;;;;;;84.68;53.78;;;;;;;;;;5029505;28;20045;-57
2023/10/26 08:22:59;;;;;;;93.90;54.63;;;;;;;;;;5031062;28;20468;-56
2023/10/26 08:25:24;;;;;;;79.63;52.40;;;;;;;;;;5028545;28;20420;-57
2023/10/26 08:27:49;;;;;;;70.30;47.73;;;;;;;;;;5031136;28;20017;-57
2023/10/26 08:30:15;;;;;;;63.87;45.93;;;;;;;;;;5029405;28;20033;-57
2023/10/26 08:32:40;;;;;;;66.93;47.00;;;;;;;;;;5031405;28;20477;-57
2023/10/26 08:35:05;;;;;;;75.33;46.13;;;;;;;;;;5028398;28;20042;-57
2023/10/26 08:37:30;;;;;;;68.55;44.67;;;;;;;;;;5031242;28;20028;-57
2023/10/26 08:39:56;;;;;;;71.53;47.30;;;;;;;;;;5029446;28;20400;-57
2023/10/26 08:42:21;;;;;;;71.63;47.53;;;;;;;;;;5030410;28;20108;-56
2023/10/26 08:44:46;;;;;;;79.00;49.47;;;;;;;;;;5029139;28;20028;-57
2023/10/26 08:47:14;;;;;;;78.20;48.15;;;;;;;;;;5029120;28;20043;-57
2023/10/26 08:49:41;;;;;;;68.28;45.65;;;;;;;;;;5027631;28;20147;-59
2023/10/26 08:52:06;;;;;;;68.93;45.53;;;;;;;;;;5029340;28;20081;-57
2023/10/26 08:54:32;;;;;;;67.47;44.88;;;;;;;;;;5028443;28;20417;-56
2023/10/26 08:57:04;;;;;;;75.97;50.58;;;;;;;;;;5029560;28;20025;-57
2023/10/26 08:59:29;;;;;;;61.78;43.85;;;;;;;;;;5029828;28;20013;-57
2023/10/26 09:01:54;;;;;;;66.87;46.17;;;;;;;;;;5028226;28;20467;-57
2023/10/26 09:04:19;;;;;;;64.53;48.20;;;;;;;;;;5027852;28;20984;-57
2023/10/26 09:06:45;;;;;;;57.63;41.70;;;;;;;;;;5028921;28;20099;-57
2023/10/26 09:09:11;;;;;;;64.75;42.95;;;;;;;;;;5030724;28;20021;-57
2023/10/26 09:11:36;;;;;;;58.45;42.88;;;;;;;;;;5028853;28;20047;-57
2023/10/26 09:14:17;;;;;;;61.97;41.85;;;;;;;;;;5030539;28;20009;-57
2023/10/26 09:16:45;;;;;;;60.08;43.60;;;;;;;;;;5029022;28;20496;-57
2023/10/26 09:19:14;;;;;;;63.15;46.03;;;;;;;;;;5029931;28;20021;-57
2023/10/26 09:21:52;;;;;;;68.78;48.60;;;;;;;;;;5029084;28;20060;-57
2023/10/26 09:24:24;;;;;;;58.00;43.63;;;;;;;;;;5030102;28;20025;-57
2023/10/26 09:26:49;;;;;;;67.53;46.30;;;;;;;;;;5027415;28;20030;-57
2023/10/26 09:29:15;;;;;;;60.08;47.70;;;;;;;;;;5029042;28;20020;-56
2023/10/26 09:31:56;;;;;;;60.30;45.00;;;;;;;;;;5027595;28;20033;-57
2023/10/26 09:34:22;;;;;;;63.22;49.53;;;;;;;;;;5029060;28;20451;-57
2023/10/26 09:37:01;;;;;;;57.05;42.03;;;;;;;;;;5028781;28;20042;-57
2023/10/26 09:39:26;;;;;;;;;;;;;;;;;;5031174;28;20018;-57
2023/10/26 09:41:51;;;;;;;58.40;42.15;;;;;;;;;;5027927;28;19913;-57
2023/10/26 09:44:17;;;;;;;60.67;46.78;;;;;;;;;;5030284;28;20472;-57
2023/10/26 09:46:42;;;;;;;68.15;46.72;;;;;;;;;;5028856;28;20095;-64
2023/10/26 09:49:07;;;;;;;58.20;44.67;;;;;;;;;;5029738;28;20552;-57
2023/10/26 09:51:32;;;;;;;62.58;44.97;;;;;;;;;;5028583;28;20049;-57
2023/10/26 09:53:59;;;;;;;53.03;44.43;;;;;;;;;;5026704;28;20021;-57
2023/10/26 09:56:27;;;;;;;56.33;43.47;;;;;;;;;;5028371;28;20030;-57
2023/10/26 09:58:52;;;;;;;65.43;49.90;;;;;;;;;;5032838;28;20036;-57
2023/10/26 10:01:42;;;;;;;61.42;47.92;;;;;;;;;;5032179;28;20037;-57
2023/10/26 10:04:09;;;;;;;60.28;45.75;;;;;;;;;;5033342;28;20021;-57
2023/10/26 10:06:44;;;;;;;60.00;46.63;;;;;;;;;;5032411;28;20029;-57
2023/10/26 10:09:12;;;;;;;51.13;38.53;;;;;;;;;;5033765;28;20021;-57
2023/10/26 10:11:38;;;;;;;49.33;41.35;;;;;;;;;;5029880;28;20176;-57
2023/10/26 10:14:04;;;;;;;51.97;40.90;;;;;;;;;;5018316;28;20386;-57
2023/10/26 10:16:34;;;;;;;54.42;41.10;;;;;;;;;;5018619;28;20033;-57
2023/10/26 10:19:19;;;;;;;49.83;37.70;;;;;;;;;;5032769;28;20028;-57
2023/10/26 10:21:44;;;;;;;41.38;34.13;;;;;;;;;;5031339;28;20030;-57
2023/10/26 10:24:09;;;;;;;38.20;31.77;;;;;;;;;;5033507;28;20096;-57
2023/10/26 10:26:53;;;;;;;42.03;33.30;;;;;;;;;;5031494;28;20048;-57
2023/10/26 10:29:21;;;;;;;44.40;35.17;;;;;;;;;;5032463;28;20494;-57
2023/10/26 10:31:46;;;;;;;42.10;34.13;;;;;;;;;;5031579;28;20037;-57
2023/10/26 10:34:14;;;;;;;39.90;31.87;;;;;;;;;;5032588;28;20041;-57
2023/10/26 10:37:02;;;;;;;42.53;35.53;;;;;;;;;;5031857;28;20413;-57
2023/10/26 10:39:27;;;;;;;42.75;34.80;;;;;;;;;;5032017;28;20118;-69
2023/10/26 10:41:52;;;;;;;38.13;32.07;;;;;;;;;;5030648;28;20496;-58
2023/10/26 10:44:18;;;;;;;40.33;31.88;;;;;;;;;;5032877;28;20483;-57
2023/10/26 10:46:46;;;;;;;35.58;29.30;;;;;;;;;;5031553;28;20034;-57
2023/10/26 10:49:12;;;;;;;36.95;32.92;;;;;;;;;;5032510;28;20072;-57
2023/10/26 10:51:41;;;;;;;33.10;29.47;;;;;;;;;;5028437;28;20798;-57
2023/10/26 10:54:10;;;;;;;37.30;29.38;;;;;;;;;;5032809;28;20017;-57
2023/10/26 10:56:37;;;;;;;32.13;26.05;;;;;;;;;;5030523;28;20026;-57
2023/10/26 10:59:13;;;;;;;31.02;25.50;;;;;;;;;;5032089;28;20021;-57
2023/10/26 11:01:39;;;;;;;30.63;27.13;;;;;;;;;;5031025;28;20037;-57
2023/10/26 11:04:06;;;;;;;31.77;28.57;;;;;;;;;;5032080;28;20040;-57
2023/10/26 11:06:31;;;;;;;31.08;27.88;;;;;;;;;;5031020;28;20452;-57
2023/10/26 11:08:56;;;;;;;32.17;28.55;;;;;;;;;;5031814;28;20029;-57
2023/10/26 11:11:26;;;;;;;28.60;23.03;;;;;;;;;;5030618;28;20036;-57
2023/10/26 11:14:04;;;;;;;36.83;28.77;;;;;;;;;;5032167;28;20472;-57
2023/10/26 11:16:29;;;;;;;30.88;23.55;;;;;;;;;;5031152;28;20030;-57
2023/10/26 11:18:55;;;;;;;30.58;27.55;;;;;;;;;;5031900;28;20025;-57
2023/10/26 11:21:20;;;;;;;30.05;25.35;;;;;;;;;;5031038;28;20041;-57
2023/10/26 11:23:49;;;;;;;27.80;24.80;;;;;;;;;;5032228;28;20500;-57
2023/10/26 11:26:14;;;;;;;27.65;24.35;;;;;;;;;;5030359;28;20034;-57
2023/10/26 11:28:39;;;;;;;29.00;25.90;;;;;;;;;;5032253;28;20028;-57
2023/10/26 11:31:04;;;;;;;30.20;27.05;;;;;;;;;;5030776;28;20071;-57
2023/10/26 11:33:29;;;;;;;27.30;22.83;;;;;;;;;;5031696;28;20491;-57
2023/10/26 11:35:55;;;;;;;27.33;21.83;;;;;;;;;;5030602;28;20041;-57
2023/10/26 11:38:20;;;;;;;25.40;22.67;;;;;;;;;;5031977;28;20057;-57
2023/10/26 11:40:46;;;;;;;25.93;22.80;;;;;;;;;;5030282;28;20087;-57
2023/10/26 11:43:11;;;;;;;28.73;23.13;;;;;;;;;;5031944;28;20108;-57
2023/10/26 11:45:47;;;;;;;25.87;22.70;;;;;;;;;;5030615;28;20506;-57
2023/10/26 11:48:24;;;;;;;25.15;22.42;;;;;;;;;;5031150;28;20444;-57
2023/10/26 11:50:49;;;;;;;26.35;23.63;;;;;;;;;;5030539;28;20026;-57
2023/10/26 11:53:14;;;;;;;26.90;23.97;;;;;;;;;;5031673;28;20533;-57
2023/10/26 11:55:39;;;;;;;25.90;21.13;;;;;;;;;;5029998;28;20044;-57
2023/10/26 11:58:04;;;;;;;25.30;20.83;;;;;;;;;;5031536;28;20464;-57
2023/10/26 12:00:30;;;;;;;23.57;20.80;;;;;;;;;;5030496;28;20112;-57
2023/10/26 12:02:56;;;;;;;23.48;20.88;;;;;;;;;;5031018;28;20034;-57
2023/10/26 12:05:22;;;;;;;27.67;22.60;;;;;;;;;;5030443;28;20159;-57
2023/10/26 12:07:48;;;;;;;22.85;20.63;;;;;;;;;;5031696;28;20439;-58
2023/10/26 12:10:15;;;;;;;21.90;19.67;;;;;;;;;;5029748;28;20030;-57
2023/10/26 12:12:40;;;;;;;19.83;17.85;;;;;;;;;;5031368;28;20075;-57
2023/10/26 12:15:06;;;;;;;22.58;20.08;;;;;;;;;;5029402;28;20037;-57
2023/10/26 12:17:31;;;;;;;25.15;20.90;;;;;;;;;;5031226;28;20026;-58
2023/10/26 12:19:56;;;;;;;24.45;21.85;;;;;;;;;;5026519;28;20109;-57
2023/10/26 12:22:21;;;;;;;21.27;18.97;;;;;;;;;;5031138;28;20030;-57
2023/10/26 12:24:46;;;;;;;24.90;21.27;;;;;;;;;;5029376;28;20083;-57
2023/10/26 12:27:16;;;;;;;24.92;22.30;;;;;;;;;;5019863;28;20022;-57
2023/10/26 12:29:41;;;;;;;23.27;20.23;;;;;;;;;;5013526;28;20083;-57
2023/10/26 12:32:06;;;;;;;23.40;20.98;;;;;;;;;;5010837;28;20025;-62
2023/10/26 12:34:33;;;;;;;25.13;22.60;;;;;;;;;;5011529;28;20513;-57
2023/10/26 12:36:58;;;;;;;22.15;19.75;;;;;;;;;;5009813;28;20460;-57
2023/10/26 12:39:23;;;;;;;22.52;20.17;;;;;;;;;;5011047;28;20239;-57
2023/10/26 12:41:48;;;;;;;22.10;19.85;;;;;;;;;;5009678;28;20068;-57
2023/10/26 12:44:15;;;;;;;22.17;19.57;;;;;;;;;;5014825;28;20071;-57
2023/10/26 12:46:41;;;;;;;21.92;19.50;;;;;;;;;;5028874;28;21010;-57
2023/10/26 12:49:06;;;;;;;22.57;20.27;;;;;;;;;;5030670;28;20109;-57
2023/10/26 12:51:31;;;;;;;21.77;18.02;;;;;;;;;;5029352;28;20111;-57
2023/10/26 12:53:56;;;;;;;20.27;18.03;;;;;;;;;;5030361;28;20110;-65
2023/10/26 12:56:21;;;;;;;20.57;18.53;;;;;;;;;;5028252;28;20516;-57
2023/10/26 12:58:46;;;;;;;19.55;17.38;;;;;;;;;;5029665;28;20428;-57
2023/10/26 13:01:11;;;;;;;23.02;20.63;;;;;;;;;;5028415;28;20484;-58
2023/10/26 13:03:37;;;;;;;26.50;21.77;;;;;;;;;;5030613;28;20076;-57
2023/10/26 13:06:02;;;;;;;24.50;20.83;;;;;;;;;;5028683;28;20029;-57
2023/10/26 13:08:27;;;;;;;23.77;21.20;;;;;;;;;;5030362;28;20017;-57
2023/10/26 13:10:53;;;;;;;23.83;21.17;;;;;;;;;;5029049;28;20449;-57
2023/10/26 13:13:18;;;;;;;25.63;22.38;;;;;;;;;;5030960;28;20125;-57
2023/10/26 13:15:43;;;;;;;28.17;21.15;;;;;;;;;;5028850;28;20037;-57
2023/10/26 13:18:08;;;;;;;23.60;21.20;;;;;;;;;;5030183;28;20021;-57
2023/10/26 13:20:33;;;;;;;23.77;21.33;;;;;;;;;;5029147;28;20086;-57
2023/10/26 13:22:58;;;;;;;24.77;22.25;;;;;;;;;;5030094;28;20544;-57
2023/10/26 13:25:25;;;;;;;25.27;21.40;;;;;;;;;;5029065;28;20026;-58
2023/10/26 13:27:50;;;;;;;22.48;19.08;;;;;;;;;;5030395;28;20428;-57
2023/10/26 13:30:16;;;;;;;24.37;19.50;;;;;;;;;;5028870;28;20366;-57
2023/10/26 13:32:41;;;;;;;24.02;21.17;;;;;;;;;;5031240;28;20140;-57
2023/10/26 13:35:07;;;;;;;24.95;22.48;;;;;;;;;;5032489;28;20049;-57
2023/10/26 13:37:32;;;;;;;20.98;18.77;;;;;;;;;;5034366;28;20029;-57
2023/10/26 13:39:57;;;;;;;22.48;20.05;;;;;;;;;;5032476;28;20496;-57
2023/10/26 13:42:22;;;;;;;20.92;18.73;;;;;;;;;;5034124;28;20018;-57
2023/10/26 13:44:48;;;;;;;22.13;19.80;;;;;;;;;;5032832;28;20071;-57
2023/10/26 13:47:13;;;;;;;23.37;20.87;;;;;;;;;;5033680;28;20504;-57
2023/10/26 13:49:38;;;;;;;24.33;21.70;;;;;;;;;;5032532;28;20017;-57
2023/10/26 13:52:04;;;;;;;19.37;17.33;;;;;;;;;;5034017;28;20494;-57
2023/10/26 13:54:29;;;;;;;26.42;20.92;;;;;;;;;;5034044;28;20032;-57
2023/10/26 13:56:55;;;;;;;22.73;19.43;;;;;;;;;;5032217;28;20404;-59
2023/10/26 13:59:20;;;;;;;23.10;18.58;;;;;;;;;;5034018;28;20025;-57
2023/10/26 14:01:45;;;;;;;20.17;17.95;;;;;;;;;;5032091;28;20038;-58
2023/10/26 14:04:10;;;;;;;21.95;17.42;;;;;;;;;;5033625;28;20477;-57
2023/10/26 14:06:36;;;;;;;21.67;19.52;;;;;;;;;;5032432;28;20034;-57
2023/10/26 14:09:01;;;;;;;18.50;16.53;;;;;;;;;;5033098;28;20024;-57
2023/10/26 14:11:26;;;;;;;22.23;19.97;;;;;;;;;;5032257;28;20458;-58